createdAt,value
2022-10-08T00:00:41.542Z,71.8
2022-10-08T00:01:57.508Z,71.7
2022-10-08T00:03:13.921Z,71.8
2022-10-08T00:04:30.104Z,71.8
2022-10-08T00:05:46.282Z,71.7
2022-10-08T00:07:02.486Z,71.7
2022-10-08T00:08:18.425Z,71.7
2022-10-08T00:09:34.848Z,71.7
2022-10-08T00:10:51.034Z,71.7
2022-10-08T00:12:06.247Z,71.8
2022-10-08T00:13:22.431Z,71.7
2022-10-08T00:14:38.618Z,71.8
2022-10-08T00:15:54.802Z,71.7
2022-10-08T00:17:10.992Z,71.8
2022-10-08T00:18:27.175Z,71.8
2022-10-08T00:19:43.132Z,71.8
2022-10-08T00:20:59.324Z,71.8
2022-10-08T00:22:15.750Z,71.8
2022-10-08T00:23:31.923Z,71.8
2022-10-08T00:24:47.879Z,71.8
2022-10-08T00:26:04.311Z,71.8
2022-10-08T00:27:20.487Z,71.8
2022-10-08T00:28:35.693Z,71.8
2022-10-08T00:29:51.874Z,71.9
2022-10-08T00:31:07.828Z,71.9
2022-10-08T00:32:24.015Z,71.9
2022-10-08T00:33:40.436Z,71.9
2022-10-08T00:34:56.385Z,71.9
2022-10-08T00:36:12.807Z,71.9
2022-10-08T00:37:28.994Z,71.9
2022-10-08T00:38:45.183Z,71.9
2022-10-08T00:40:01.377Z,71.9
2022-10-08T00:41:17.557Z,71.9
2022-10-08T00:42:33.524Z,71.9
2022-10-08T00:43:49.936Z,71.9
2022-10-08T00:45:05.150Z,71.9
2022-10-08T00:46:21.102Z,71.9
2022-10-08T00:47:37.514Z,71.9
2022-10-08T00:48:53.707Z,71.9
2022-10-08T00:50:09.661Z,71.9
2022-10-08T00:51:26.075Z,71.9
2022-10-08T00:52:42.258Z,71.9
2022-10-08T00:53:58.452Z,71.9
2022-10-08T00:55:14.650Z,71.9
2022-10-08T00:56:30.586Z,71.9
2022-10-08T00:57:46.776Z,71.9
2022-10-08T00:59:02.963Z,71.9
2022-10-08T01:00:19.395Z,71.9
2022-10-08T01:01:34.587Z,71.9
2022-10-08T01:02:50.548Z,71.9
2022-10-08T01:04:06.965Z,71.9
2022-10-08T01:05:22.916Z,71.9
2022-10-08T01:06:39.345Z,72
2022-10-08T01:07:55.521Z,71.9
2022-10-08T01:09:11.725Z,71.9
2022-10-08T01:10:27.666Z,72
2022-10-08T01:11:43.849Z,71.9
2022-10-08T01:13:00.285Z,72
2022-10-08T01:14:16.462Z,71.9
2022-10-08T01:15:32.662Z,71.9
2022-10-08T01:16:48.847Z,72
2022-10-08T01:18:03.803Z,71.9
2022-10-08T01:19:19.975Z,72
2022-10-08T01:20:36.179Z,71.9
2022-10-08T01:21:52.607Z,71.9
2022-10-08T01:23:08.784Z,71.9
2022-10-08T01:24:24.732Z,72
2022-10-08T01:25:41.172Z,71.9
2022-10-08T01:26:57.359Z,72.1
2022-10-08T01:28:13.287Z,72
2022-10-08T01:29:29.719Z,72.1
2022-10-08T01:30:45.915Z,72.1
2022-10-08T01:32:02.103Z,72.1
2022-10-08T01:33:18.283Z,72.1
2022-10-08T01:34:33.496Z,72
2022-10-08T01:35:49.428Z,72.1
2022-10-08T01:37:05.622Z,72
2022-10-08T01:38:22.056Z,72
2022-10-08T01:39:38.245Z,72
2022-10-08T01:40:54.437Z,72.1
2022-10-08T01:42:09.383Z,72.1
2022-10-08T01:43:25.579Z,72
2022-10-08T01:44:42.009Z,72.1
2022-10-08T01:45:58.192Z,72.1
2022-10-08T01:47:14.397Z,72.1
2022-10-08T01:48:30.587Z,72
2022-10-08T01:49:46.762Z,72.1
2022-10-08T01:51:02.687Z,72.1
2022-10-08T01:52:19.131Z,72.1
2022-10-08T01:53:35.320Z,72.2
2022-10-08T01:54:51.511Z,72.1
2022-10-08T01:56:07.696Z,72.2
2022-10-08T01:57:23.889Z,72.2
2022-10-08T01:58:38.838Z,72.2
2022-10-08T01:59:55.274Z,72.2
2022-10-08T02:01:11.208Z,72.2
2022-10-08T02:02:27.398Z,72.2
2022-10-08T02:03:43.841Z,72.2
2022-10-08T02:05:00.018Z,72.2
2022-10-08T02:06:15.965Z,72.2
2022-10-08T02:07:32.403Z,72.2
2022-10-08T02:08:48.329Z,72.2
2022-10-08T02:10:04.780Z,72.2
2022-10-08T02:11:20.954Z,72.2
2022-10-08T02:12:37.155Z,72.2
2022-10-08T02:13:53.076Z,72.2
2022-10-08T02:15:08.272Z,72.2
2022-10-08T02:16:24.467Z,72.2
2022-10-08T02:17:40.910Z,72.2
2022-10-08T02:18:56.837Z,72.2
2022-10-08T02:20:13.295Z,72.2
2022-10-08T02:21:29.208Z,72.2
2022-10-08T02:22:45.672Z,72.2
2022-10-08T02:24:01.842Z,72.2
2022-10-08T02:25:18.039Z,72.2
2022-10-08T02:26:34.222Z,72.2
2022-10-08T02:27:50.402Z,72.2
2022-10-08T02:29:06.594Z,72.2
2022-10-08T02:30:22.779Z,72.1
2022-10-08T02:31:37.983Z,72.2
2022-10-08T02:32:54.185Z,72.2
2022-10-08T02:34:10.375Z,72.2
2022-10-08T02:35:26.552Z,72.1
2022-10-08T02:36:42.466Z,72.2
2022-10-08T02:37:58.926Z,72.2
2022-10-08T02:39:15.109Z,72.2
2022-10-08T02:40:31.048Z,72.1
2022-10-08T02:41:47.223Z,72.2
2022-10-08T02:43:03.669Z,72.2
2022-10-08T02:44:19.868Z,72.2
2022-10-08T02:45:36.041Z,72.2
2022-10-08T02:46:52.232Z,72.2
2022-10-08T02:48:07.449Z,72.2
2022-10-08T02:49:23.354Z,72.2
2022-10-08T02:50:39.809Z,72.2
2022-10-08T02:51:55.741Z,72.2
2022-10-08T02:53:12.183Z,72.2
2022-10-08T02:54:28.375Z,72.2
2022-10-08T02:55:44.556Z,72.2
2022-10-08T02:57:00.476Z,72.2
2022-10-08T02:58:16.933Z,72.2
2022-10-08T02:59:33.124Z,72.2
2022-10-08T03:00:49.312Z,72.2
2022-10-08T03:02:05.510Z,72.2
2022-10-08T03:03:21.681Z,72.2
2022-10-08T03:04:36.889Z,72.2
2022-10-08T03:05:53.074Z,72.2
2022-10-08T03:07:08.998Z,72.2
2022-10-08T03:08:25.190Z,72.2
2022-10-08T03:09:41.641Z,72.2
2022-10-08T03:10:57.820Z,72.2
2022-10-08T03:12:13.742Z,72.2
2022-10-08T03:13:30.203Z,72.2
2022-10-08T03:14:46.112Z,72.2
2022-10-08T03:17:18.485Z,72.2
2022-10-08T03:18:34.673Z,72.3
2022-10-08T03:19:51.129Z,72.3
2022-10-08T03:21:06.067Z,72.2
2022-10-08T03:22:22.000Z,72.3
2022-10-08T03:23:38.716Z,72.3
2022-10-08T03:24:54.903Z,72.3
2022-10-08T03:26:11.080Z,72.3
2022-10-08T03:27:27.278Z,72.3
2022-10-08T03:28:43.473Z,72.3
2022-10-08T03:29:59.367Z,72.3
2022-10-08T03:31:15.558Z,72.3
2022-10-08T03:32:32.034Z,72.3
2022-10-08T03:33:48.210Z,72.3
2022-10-08T03:35:04.392Z,72.2
2022-10-08T03:36:20.595Z,72.3
2022-10-08T03:37:35.787Z,72.3
2022-10-08T03:38:51.987Z,72.3
2022-10-08T03:40:08.170Z,72.3
2022-10-08T03:41:24.349Z,72.3
2022-10-08T03:42:40.253Z,72.3
2022-10-08T03:43:56.732Z,72.3
2022-10-08T03:45:12.909Z,72.3
2022-10-08T03:46:29.104Z,72.3
2022-10-08T03:47:45.293Z,72.3
2022-10-08T03:49:01.480Z,72.3
2022-10-08T03:50:17.379Z,72.3
2022-10-08T03:51:33.850Z,72.3
2022-10-08T03:52:50.042Z,72.3
2022-10-08T03:54:05.249Z,72.3
2022-10-08T03:55:21.437Z,72.3
2022-10-08T03:56:37.341Z,72.3
2022-10-08T03:57:53.812Z,72.4
2022-10-08T03:59:09.992Z,72.4
2022-10-08T04:00:25.894Z,72.4
2022-10-08T04:01:42.357Z,72.4
2022-10-08T04:02:58.541Z,72.4
2022-10-08T04:04:14.745Z,72.4
2022-10-08T04:05:30.935Z,72.4
2022-10-08T04:06:47.116Z,72.4
2022-10-08T04:08:03.017Z,72.4
2022-10-08T04:09:19.196Z,72.4
2022-10-08T04:10:34.684Z,72.4
2022-10-08T04:11:50.885Z,72.4
2022-10-08T04:13:07.066Z,72.4
2022-10-08T04:14:23.245Z,72.4
2022-10-08T04:15:39.440Z,72.4
2022-10-08T04:16:55.632Z,72.4
2022-10-08T04:18:11.806Z,72.4
2022-10-08T04:19:28.004Z,72.4
2022-10-08T04:20:44.197Z,72.4
2022-10-08T04:22:00.383Z,72.4
2022-10-08T04:23:16.560Z,72.4
2022-10-08T04:24:32.757Z,72.3
2022-10-08T04:25:48.947Z,72.3
2022-10-08T04:27:04.147Z,72.3
2022-10-08T04:28:20.332Z,72.3
2022-10-08T04:29:36.523Z,72.3
2022-10-08T04:30:52.694Z,72.3
2022-10-08T04:32:08.880Z,72.3
2022-10-08T04:33:25.070Z,72.3
2022-10-08T04:34:40.985Z,72.3
2022-10-08T04:35:57.449Z,72.3
2022-10-08T04:37:13.645Z,72.3
2022-10-08T04:38:29.529Z,72.4
2022-10-08T04:39:46.008Z,72.3
2022-10-08T04:41:02.194Z,72.4
2022-10-08T04:42:18.383Z,72.4
2022-10-08T04:43:33.584Z,72.4
2022-10-08T04:44:49.487Z,72.4
2022-10-08T04:46:05.665Z,72.4
2022-10-08T04:47:22.157Z,72.4
2022-10-08T04:48:38.341Z,72.4
2022-10-08T04:49:54.244Z,72.4
2022-10-08T04:51:10.725Z,72.4
2022-10-08T04:52:26.906Z,72.4
2022-10-08T04:53:42.798Z,72.4
2022-10-08T04:54:59.270Z,72.4
2022-10-08T04:56:15.465Z,72.4
2022-10-08T04:57:31.647Z,72.4
2022-10-08T04:58:47.844Z,72.4
2022-10-08T05:00:02.757Z,72.4
2022-10-08T05:01:18.929Z,72.4
2022-10-08T05:02:35.410Z,72.4
2022-10-08T05:03:51.606Z,72.4
2022-10-08T05:05:07.791Z,72.5
2022-10-08T05:06:23.686Z,72.5
2022-10-08T05:07:40.166Z,72.4
2022-10-08T05:08:56.064Z,72.4
2022-10-08T05:10:12.232Z,72.4
2022-10-08T05:11:28.441Z,72.4
2022-10-08T05:12:44.908Z,72.4
2022-10-08T05:14:01.101Z,72.4
2022-10-08T05:15:17.289Z,72.4
2022-10-08T05:16:32.199Z,72.4
2022-10-08T05:17:48.673Z,72.4
2022-10-08T05:19:04.870Z,72.4
2022-10-08T05:20:20.754Z,72.4
2022-10-08T05:21:37.245Z,72.4
2022-10-08T05:22:53.436Z,72.4
2022-10-08T05:24:09.326Z,72.4
2022-10-08T05:25:25.500Z,72.4
2022-10-08T05:26:41.680Z,72.4
2022-10-08T05:27:57.881Z,72.4
2022-10-08T05:29:14.358Z,72.4
2022-10-08T05:30:30.543Z,72.4
2022-10-08T05:31:46.434Z,72.4
2022-10-08T05:33:01.952Z,72.4
2022-10-08T05:34:18.124Z,72.3
2022-10-08T05:35:34.312Z,72.4
2022-10-08T05:36:50.506Z,72.4
2022-10-08T05:38:06.395Z,72.3
2022-10-08T05:39:22.574Z,72.4
2022-10-08T05:40:39.056Z,72.4
2022-10-08T05:41:55.253Z,72.4
2022-10-08T05:43:11.440Z,72.3
2022-10-08T05:44:27.633Z,72.3
2022-10-08T05:45:43.502Z,72.4
2022-10-08T05:46:59.688Z,72.4
2022-10-08T05:48:16.188Z,72.4
2022-10-08T05:49:31.386Z,72.4
2022-10-08T05:50:47.282Z,72.4
2022-10-08T05:52:03.774Z,72.4
2022-10-08T05:53:19.957Z,72.4
2022-10-08T05:54:35.831Z,72.4
2022-10-08T05:55:52.327Z,72.4
2022-10-08T05:57:07.547Z,72.4
2022-10-08T05:58:23.737Z,72.3
2022-10-08T05:59:39.910Z,72.4
2022-10-08T06:00:56.060Z,72.3
2022-10-08T06:02:12.304Z,72.4
2022-10-08T06:03:28.472Z,72.4
2022-10-08T06:04:44.680Z,72.4
2022-10-08T06:06:00.854Z,72.4
2022-10-08T06:07:17.055Z,72.4
2022-10-08T06:08:33.203Z,72.4
2022-10-08T06:09:49.393Z,72.4
2022-10-08T06:11:05.611Z,72.3
2022-10-08T06:12:21.802Z,72.4
2022-10-08T06:13:37.016Z,72.3
2022-10-08T06:14:53.194Z,72.3
2022-10-08T06:16:09.343Z,72.2
2022-10-08T06:17:25.573Z,72.2
2022-10-08T06:18:41.761Z,72.3
2022-10-08T06:19:57.912Z,72.3
2022-10-08T06:21:14.137Z,72.3
2022-10-08T06:22:30.280Z,72.3
2022-10-08T06:23:46.475Z,72.3
2022-10-08T06:25:02.653Z,72.3
2022-10-08T06:26:18.896Z,72.3
2022-10-08T06:27:35.092Z,72.3
2022-10-08T06:28:51.235Z,72.3
2022-10-08T06:30:06.474Z,72.3
2022-10-08T06:31:22.666Z,72.2
2022-10-08T06:32:38.806Z,72.2
2022-10-08T06:33:55.045Z,72.3
2022-10-08T06:35:11.226Z,72.3
2022-10-08T06:36:27.419Z,72.2
2022-10-08T06:37:43.602Z,72.2
2022-10-08T06:38:59.808Z,72.2
2022-10-08T06:40:15.933Z,72.2
2022-10-08T06:41:32.137Z,72.2
2022-10-08T06:42:48.364Z,72.2
2022-10-08T06:44:04.549Z,72.2
2022-10-08T06:45:20.752Z,72.2
2022-10-08T06:46:35.948Z,72.2
2022-10-08T06:47:52.090Z,72.2
2022-10-08T06:49:08.332Z,72.2
2022-10-08T06:50:24.518Z,72.2
2022-10-08T06:51:40.703Z,72.1
2022-10-08T06:52:56.891Z,72.1
2022-10-08T06:54:13.030Z,72.1
2022-10-08T06:55:29.224Z,72.1
2022-10-08T06:56:45.458Z,72.1
2022-10-08T06:58:01.650Z,72
2022-10-08T06:59:17.829Z,72.1
2022-10-08T07:00:33.976Z,72.1
2022-10-08T07:01:50.213Z,72
2022-10-08T07:03:05.371Z,71.9
2022-10-08T07:04:21.552Z,71.9
2022-10-08T07:05:37.791Z,73.3
2022-10-08T07:06:53.924Z,73.1
2022-10-08T07:08:10.185Z,72.8
2022-10-08T07:09:26.369Z,73
2022-10-08T07:10:42.495Z,72.8
2022-10-08T07:11:58.752Z,72.7
2022-10-08T07:13:14.936Z,72.7
2022-10-08T07:14:31.121Z,72.4
2022-10-08T07:15:47.302Z,72.4
2022-10-08T07:17:03.498Z,72.3
2022-10-08T07:18:19.637Z,72.3
2022-10-08T07:19:34.897Z,72.2
2022-10-08T07:20:51.084Z,72.1
2022-10-08T07:22:07.271Z,72.1
2022-10-08T07:23:23.468Z,72.3
2022-10-08T07:24:39.590Z,73.3
2022-10-08T07:25:55.783Z,73.1
2022-10-08T07:27:12.034Z,73
2022-10-08T07:28:28.165Z,73
2022-10-08T07:29:44.398Z,72.9
2022-10-08T07:31:00.595Z,72.8
2022-10-08T07:32:16.791Z,72.6
2022-10-08T07:33:32.903Z,72.4
2022-10-08T07:34:49.155Z,72.1
2022-10-08T07:36:04.370Z,72
2022-10-08T07:37:20.547Z,72
2022-10-08T07:38:36.750Z,72
2022-10-08T07:39:52.937Z,71.9
2022-10-08T07:41:09.068Z,72
2022-10-08T07:42:25.303Z,72
2022-10-08T07:43:41.430Z,71.9
2022-10-08T07:44:57.679Z,71.7
2022-10-08T07:46:13.867Z,71.8
2022-10-08T07:47:30.074Z,71.6
2022-10-08T07:48:46.197Z,71.6
2022-10-08T07:50:02.438Z,71.6
2022-10-08T07:51:18.623Z,71.5
2022-10-08T07:52:33.766Z,71.4
2022-10-08T07:53:49.960Z,71.6
2022-10-08T07:55:06.212Z,71.6
2022-10-08T07:56:22.331Z,71.6
2022-10-08T07:57:38.518Z,71.7
2022-10-08T07:58:54.718Z,71.5
2022-10-08T08:00:10.979Z,71.6
2022-10-08T08:01:27.167Z,71.6
2022-10-08T08:02:43.349Z,71.3
2022-10-08T08:03:59.528Z,71.6
2022-10-08T08:05:15.731Z,71.6
2022-10-08T08:06:31.910Z,71.5
2022-10-08T08:07:48.099Z,71.7
2022-10-08T08:09:03.310Z,71.5
2022-10-08T08:10:19.424Z,71.5
2022-10-08T08:11:35.618Z,71.2
2022-10-08T08:12:51.883Z,71.3
2022-10-08T08:14:08.059Z,71.4
2022-10-08T08:15:24.180Z,71.4
2022-10-08T08:16:40.383Z,71
2022-10-08T08:17:56.625Z,71.2
2022-10-08T08:19:12.752Z,71.1
2022-10-08T08:20:29.023Z,71
2022-10-08T08:21:45.206Z,71.1
2022-10-08T08:23:01.393Z,71.2
2022-10-08T08:24:17.503Z,71.1
2022-10-08T08:25:32.794Z,71.2
2022-10-08T08:26:48.896Z,70.9
2022-10-08T08:28:05.163Z,70.8
2022-10-08T08:29:21.362Z,70.8
2022-10-08T08:30:37.545Z,70.9
2022-10-08T08:31:53.725Z,70.9
2022-10-08T08:33:09.911Z,70.8
2022-10-08T08:34:26.100Z,70.7
2022-10-08T08:35:42.226Z,70.7
2022-10-08T08:36:58.482Z,70.7
2022-10-08T08:38:14.668Z,70.7
2022-10-08T08:39:30.867Z,70.3
2022-10-08T08:40:47.049Z,70.4
2022-10-08T08:42:02.182Z,70.4
2022-10-08T08:43:18.441Z,70.6
2022-10-08T08:44:34.641Z,70.8
2022-10-08T08:45:50.828Z,70.7
2022-10-08T08:47:06.935Z,70.5
2022-10-08T08:48:23.208Z,70.4
2022-10-08T08:49:39.310Z,70.4
2022-10-08T08:50:55.580Z,70.4
2022-10-08T08:52:11.770Z,70.1
2022-10-08T08:53:27.963Z,70.3
2022-10-08T08:54:44.149Z,70
2022-10-08T08:56:00.344Z,70
2022-10-08T08:57:16.526Z,70.1
2022-10-08T08:58:31.735Z,70.4
2022-10-08T08:59:47.835Z,70.2
2022-10-08T09:01:04.115Z,70.3
2022-10-08T09:02:20.308Z,70
2022-10-08T09:03:36.484Z,69.8
2022-10-08T09:04:52.593Z,69.8
2022-10-08T09:06:08.861Z,69.8
2022-10-08T09:07:25.057Z,70
2022-10-08T09:08:41.255Z,69.8
2022-10-08T09:09:57.345Z,69.6
2022-10-08T09:11:13.634Z,69.5
2022-10-08T09:12:29.736Z,69.8
2022-10-08T09:13:45.916Z,69.8
2022-10-08T09:15:01.201Z,69.6
2022-10-08T09:16:17.398Z,69.6
2022-10-08T09:17:33.596Z,69.7
2022-10-08T09:18:49.771Z,69.6
2022-10-08T09:20:05.885Z,69.2
2022-10-08T09:21:22.156Z,69.3
2022-10-08T09:22:38.337Z,69.5
2022-10-08T09:23:54.440Z,69.1
2022-10-08T09:25:10.717Z,69.3
2022-10-08T09:26:26.818Z,69.2
2022-10-08T09:27:43.019Z,69.2
2022-10-08T09:28:59.195Z,69
2022-10-08T09:30:15.480Z,69
2022-10-08T09:31:30.691Z,68.8
2022-10-08T09:32:46.873Z,69
2022-10-08T09:34:03.055Z,69.2
2022-10-08T09:35:19.152Z,69
2022-10-08T09:36:35.430Z,69
2022-10-08T09:37:51.625Z,69
2022-10-08T09:39:07.733Z,68.8
2022-10-08T09:40:23.908Z,68.5
2022-10-08T09:41:40.202Z,68.3
2022-10-08T09:42:56.390Z,68.1
2022-10-08T09:44:12.579Z,67.6
2022-10-08T09:45:28.772Z,67.5
2022-10-08T09:46:44.856Z,67.3
2022-10-08T09:48:00.154Z,66.9
2022-10-08T09:49:16.338Z,67
2022-10-08T09:50:32.441Z,66.8
2022-10-08T09:51:48.731Z,67
2022-10-08T09:53:04.911Z,67.1
2022-10-08T09:54:21.098Z,67
2022-10-08T09:55:37.299Z,67.1
2022-10-08T09:56:53.476Z,67.3
2022-10-08T09:58:09.666Z,67.2
2022-10-08T09:59:25.779Z,67.4
2022-10-08T10:00:41.965Z,67.3
2022-10-08T10:01:58.243Z,67.4
2022-10-08T10:03:14.438Z,67.4
2022-10-08T10:04:29.529Z,67.6
2022-10-08T10:05:45.734Z,67.6
2022-10-08T10:07:02.009Z,67.7
2022-10-08T10:08:18.195Z,67.5
2022-10-08T10:09:34.381Z,67.4
2022-10-08T10:10:50.490Z,67.4
2022-10-08T10:12:05.787Z,67.5
2022-10-08T10:13:21.874Z,67.7
2022-10-08T10:14:38.174Z,67.6
2022-10-08T10:15:54.352Z,67.7
2022-10-08T10:17:10.443Z,67.5
2022-10-08T10:18:26.734Z,67.6
2022-10-08T10:19:42.935Z,67.4
2022-10-08T10:20:59.018Z,67.5
2022-10-08T10:22:15.301Z,67.6
2022-10-08T10:23:31.486Z,67.3
2022-10-08T10:24:47.689Z,67.3
2022-10-08T10:26:03.862Z,67.1
2022-10-08T10:27:20.066Z,67.1
2022-10-08T10:28:35.260Z,66.9
2022-10-08T10:29:51.457Z,66.7
2022-10-08T10:31:07.637Z,66.8
2022-10-08T10:32:23.837Z,66.8
2022-10-08T10:33:40.020Z,66.9
2022-10-08T10:34:56.201Z,66.9
2022-10-08T10:36:12.293Z,66.9
2022-10-08T10:37:28.584Z,67.1
2022-10-08T10:38:44.786Z,66.9
2022-10-08T10:40:00.856Z,66.9
2022-10-08T10:41:17.147Z,66.4
2022-10-08T10:42:33.243Z,66.2
2022-10-08T10:43:49.423Z,65.8
2022-10-08T10:45:04.750Z,65.9
2022-10-08T10:46:20.936Z,66.2
2022-10-08T10:47:37.111Z,66.4
2022-10-08T10:48:53.313Z,66.3
2022-10-08T10:50:09.492Z,66.4
2022-10-08T10:51:25.589Z,66.5
2022-10-08T10:52:41.870Z,66.8
2022-10-08T10:53:58.056Z,66.7
2022-10-08T10:55:14.148Z,67.1
2022-10-08T10:56:30.343Z,67.1
2022-10-08T10:57:46.631Z,67.4
2022-10-08T10:59:02.810Z,67.2
2022-10-08T11:00:19.002Z,67.2
2022-10-08T11:01:34.109Z,67.1
2022-10-08T11:02:50.396Z,67.1
2022-10-08T11:04:06.591Z,67.1
2022-10-08T11:05:22.781Z,67.2
2022-10-08T11:06:38.870Z,67.2
2022-10-08T11:07:55.153Z,67.4
2022-10-08T11:09:11.355Z,67.4
2022-10-08T11:10:27.541Z,67.2
2022-10-08T11:11:43.720Z,67.4
2022-10-08T11:12:59.910Z,67.4
2022-10-08T11:14:15.996Z,67.6
2022-10-08T11:15:32.294Z,67.4
2022-10-08T11:16:48.485Z,67.6
2022-10-08T11:18:03.680Z,67.5
2022-10-08T11:19:19.877Z,67.5
2022-10-08T11:20:36.083Z,67.3
2022-10-08T11:21:52.150Z,67.4
2022-10-08T11:23:08.446Z,67.5
2022-10-08T11:24:24.631Z,67.6
2022-10-08T11:25:40.822Z,67.3
2022-10-08T11:26:57.007Z,67.2
2022-10-08T11:28:13.080Z,67.3
2022-10-08T11:29:29.277Z,67.5
2022-10-08T11:30:45.567Z,67.6
2022-10-08T11:32:01.642Z,67.6
2022-10-08T11:33:17.961Z,67.8
2022-10-08T11:34:33.053Z,67.7
2022-10-08T11:35:49.342Z,67.9
2022-10-08T11:37:05.541Z,68
2022-10-08T11:38:21.727Z,67.9
2022-10-08T11:39:37.924Z,67.8
2022-10-08T11:40:54.097Z,67.7
2022-10-08T11:42:10.301Z,67.6
2022-10-08T11:43:26.487Z,67.7
2022-10-08T11:44:42.550Z,67.7
2022-10-08T11:45:58.746Z,67.9
2022-10-08T11:47:15.050Z,67.9
2022-10-08T11:48:31.239Z,68
2022-10-08T11:49:47.423Z,67.9
2022-10-08T11:51:02.636Z,68.1
2022-10-08T11:52:18.817Z,68
2022-10-08T11:53:35.002Z,68.3
2022-10-08T11:54:51.191Z,68.4
2022-10-08T11:56:07.382Z,68.2
2022-10-08T11:57:23.568Z,68.3
2022-10-08T11:58:39.776Z,68.3
2022-10-08T11:59:55.958Z,68.3
2022-10-08T12:01:12.136Z,68.2
2022-10-08T12:02:28.339Z,68.2
2022-10-08T12:03:44.518Z,68.2
2022-10-08T12:05:00.706Z,68.1
2022-10-08T12:06:16.896Z,68
2022-10-08T12:07:31.995Z,68.1
2022-10-08T12:08:48.288Z,68
2022-10-08T12:10:04.482Z,67.9
2022-10-08T12:11:20.555Z,67.7
2022-10-08T12:12:36.856Z,67.6
2022-10-08T12:13:53.046Z,67.5
2022-10-08T12:15:09.116Z,67.4
2022-10-08T12:16:25.421Z,67.2
2022-10-08T12:17:41.608Z,67
2022-10-08T12:18:57.814Z,67
2022-10-08T12:20:13.996Z,66.8
2022-10-08T12:21:30.192Z,66.7
2022-10-08T12:22:46.251Z,66.7
2022-10-08T12:24:01.570Z,66.5
2022-10-08T12:25:17.773Z,66.6
2022-10-08T12:26:33.958Z,66.7
2022-10-08T12:27:50.139Z,66.8
2022-10-08T12:29:06.344Z,66.7
2022-10-08T12:30:22.523Z,66.8
2022-10-08T12:31:38.580Z,66.7
2022-10-08T12:32:54.901Z,66.6
2022-10-08T12:34:11.081Z,66.4
2022-10-08T12:35:27.277Z,66.2
2022-10-08T12:36:43.460Z,66.2
2022-10-08T12:37:59.537Z,66.1
2022-10-08T12:39:15.846Z,66.2
2022-10-08T12:40:31.043Z,66.1
2022-10-08T12:41:47.113Z,66.1
2022-10-08T12:43:03.426Z,66.2
2022-10-08T12:44:19.485Z,66
2022-10-08T12:45:35.798Z,66
2022-10-08T12:46:51.990Z,65.8
2022-10-08T12:48:08.180Z,65.9
2022-10-08T12:49:24.378Z,65.8
2022-10-08T12:50:40.571Z,66
2022-10-08T12:51:56.618Z,66.1
2022-10-08T12:53:12.818Z,66.1
2022-10-08T12:54:29.135Z,66.2
2022-10-08T12:55:45.182Z,66
2022-10-08T12:57:00.402Z,65.6
2022-10-08T12:58:16.580Z,65.3
2022-10-08T12:59:32.896Z,65.2
2022-10-08T13:00:48.964Z,65.2
2022-10-08T13:02:05.271Z,65.2
2022-10-08T13:03:21.470Z,65.3
2022-10-08T13:04:37.667Z,65.5
2022-10-08T13:05:53.856Z,65.3
2022-10-08T13:07:10.047Z,65.4
2022-10-08T13:08:26.228Z,65.6
2022-10-08T13:09:42.421Z,65.3
2022-10-08T13:10:58.465Z,65.3
2022-10-08T13:12:14.789Z,65.3
2022-10-08T13:13:29.868Z,65.2
2022-10-08T13:14:46.055Z,65.4
2022-10-08T13:16:02.238Z,65.6
2022-10-08T13:17:18.559Z,65.6
2022-10-08T13:18:34.746Z,65.5
2022-10-08T13:19:50.934Z,65.6
2022-10-08T13:21:06.991Z,65.4
2022-10-08T13:22:23.324Z,65.3
2022-10-08T13:23:39.510Z,65.5
2022-10-08T13:24:55.572Z,65.5
2022-10-08T13:26:11.884Z,65.3
2022-10-08T13:27:27.936Z,65.4
2022-10-08T13:28:44.266Z,65.4
2022-10-08T13:29:59.337Z,65.6
2022-10-08T13:31:15.527Z,65.6
2022-10-08T13:32:31.849Z,65.7
2022-10-08T13:33:48.033Z,65.9
2022-10-08T13:35:04.232Z,65.9
2022-10-08T13:36:20.427Z,66.2
2022-10-08T13:37:36.598Z,66.2
2022-10-08T13:38:52.660Z,66.1
2022-10-08T13:40:08.851Z,66.2
2022-10-08T13:41:25.166Z,66.2
2022-10-08T13:42:41.363Z,66.1
2022-10-08T13:43:57.554Z,66.2
2022-10-08T13:45:13.743Z,66
2022-10-08T13:46:28.954Z,66.2
2022-10-08T13:47:45.130Z,66.2
2022-10-08T13:49:01.330Z,66.2
2022-10-08T13:50:17.514Z,66
2022-10-08T13:51:33.701Z,66.2
2022-10-08T13:52:49.880Z,66
2022-10-08T13:54:06.071Z,66.1
2022-10-08T13:55:22.264Z,66.2
2022-10-08T13:56:38.457Z,66.6
2022-10-08T13:57:54.641Z,66.5
2022-10-08T13:59:10.830Z,66.3
2022-10-08T14:00:26.883Z,66.5
2022-10-08T14:01:43.210Z,66.6
2022-10-08T14:02:58.420Z,66.7
2022-10-08T14:04:14.618Z,66.5
2022-10-08T14:05:30.791Z,66.5
2022-10-08T14:06:46.830Z,66.4
2022-10-08T14:08:03.168Z,66.7
2022-10-08T14:09:19.209Z,66.4
2022-10-08T14:10:35.547Z,66.5
2022-10-08T14:11:51.744Z,66.6
2022-10-08T14:13:07.780Z,66.6
2022-10-08T14:14:24.125Z,66.7
2022-10-08T14:15:40.312Z,66.7
2022-10-08T14:16:56.348Z,67
2022-10-08T14:18:12.533Z,66.8
2022-10-08T14:19:27.737Z,66.8
2022-10-08T14:20:44.077Z,67
2022-10-08T14:22:00.267Z,66.9
2022-10-08T14:23:16.462Z,67
2022-10-08T14:24:32.656Z,66.8
2022-10-08T14:25:48.842Z,66.9
2022-10-08T14:27:04.049Z,66.9
2022-10-08T14:28:20.086Z,67
2022-10-08T14:29:36.432Z,67.1
2022-10-08T14:30:52.605Z,66.9
2022-10-08T14:32:08.656Z,66.9
2022-10-08T14:33:24.831Z,67.1
2022-10-08T14:34:41.040Z,66.8
2022-10-08T14:35:57.380Z,66.9
2022-10-08T14:37:13.554Z,66.8
2022-10-08T14:38:29.749Z,67
2022-10-08T14:39:45.793Z,67.1
2022-10-08T14:41:01.965Z,67.2
2022-10-08T14:42:18.315Z,67
2022-10-08T14:43:33.359Z,66.7
2022-10-08T14:44:49.708Z,66.6
2022-10-08T14:46:05.897Z,66.9
2022-10-08T14:47:22.081Z,67.3
2022-10-08T14:48:38.275Z,67.1
2022-10-08T14:49:54.464Z,67.3
2022-10-08T14:51:10.661Z,67.4
2022-10-08T14:52:26.677Z,67.3
2022-10-08T14:53:42.878Z,67.8
2022-10-08T14:54:59.216Z,67.6
2022-10-08T14:56:15.262Z,67.7
2022-10-08T14:57:31.434Z,67.8
2022-10-08T14:58:47.778Z,67.7
2022-10-08T15:00:02.992Z,68
2022-10-08T15:01:19.181Z,67.9
2022-10-08T15:02:35.212Z,67.7
2022-10-08T15:03:51.570Z,67.7
2022-10-08T15:05:07.752Z,67.9
2022-10-08T15:06:23.949Z,67.9
2022-10-08T15:07:40.122Z,68
2022-10-08T15:08:56.315Z,67.9
2022-10-08T15:10:12.356Z,67.9
2022-10-08T15:11:28.694Z,68
2022-10-08T15:12:44.878Z,68
2022-10-08T15:14:01.074Z,68.1
2022-10-08T15:15:17.259Z,68.2
2022-10-08T15:16:32.474Z,68.1
2022-10-08T15:17:48.494Z,68
2022-10-08T15:19:04.844Z,67.9
2022-10-08T15:20:21.044Z,67.5
2022-10-08T15:21:37.234Z,67.6
2022-10-08T15:22:53.417Z,67.5
2022-10-08T15:24:09.604Z,67.6
2022-10-08T15:25:25.630Z,68
2022-10-08T15:26:41.978Z,68.1
2022-10-08T15:27:58.176Z,68.1
2022-10-08T15:29:14.359Z,68
2022-10-08T15:30:30.369Z,67.8
2022-10-08T15:31:46.721Z,68.2
2022-10-08T15:33:01.938Z,68.2
2022-10-08T15:34:18.117Z,68.3
2022-10-08T15:35:34.301Z,68.4
2022-10-08T15:36:50.488Z,68.1
2022-10-08T15:38:06.690Z,68.5
2022-10-08T15:39:22.864Z,68.2
2022-10-08T15:40:38.894Z,68.5
2022-10-08T15:41:55.087Z,68.7
2022-10-08T15:43:11.000Z,68.7
2022-10-08T15:44:27.614Z,68.5
2022-10-08T15:45:43.812Z,68.7
2022-10-08T15:46:59.819Z,68.5
2022-10-08T15:48:16.003Z,68.5
2022-10-08T15:49:31.225Z,68.7
2022-10-08T15:50:47.575Z,68.5
2022-10-08T15:52:03.750Z,68.7
2022-10-08T15:53:19.956Z,68.7
2022-10-08T15:54:36.138Z,68.5
2022-10-08T15:55:52.144Z,68.8
2022-10-08T15:57:08.508Z,68.8
2022-10-08T15:58:24.702Z,68.8
2022-10-08T15:59:40.883Z,68.8
2022-10-08T16:00:56.907Z,68.5
2022-10-08T16:02:13.254Z,68.5
2022-10-08T16:03:29.277Z,68.5
2022-10-08T16:04:45.632Z,68.8
2022-10-08T16:06:00.843Z,68.5
2022-10-08T16:07:17.026Z,68.8
2022-10-08T16:08:33.203Z,68.7
2022-10-08T16:09:49.393Z,68.7
2022-10-08T16:11:05.591Z,68.7
2022-10-08T16:12:21.588Z,68.5
2022-10-08T16:13:37.949Z,69
2022-10-08T16:14:54.137Z,69
2022-10-08T16:16:10.343Z,68.8
2022-10-08T16:17:26.515Z,68.8
2022-10-08T16:18:42.537Z,68.8
2022-10-08T16:19:58.892Z,69
2022-10-08T16:21:15.086Z,68.8
2022-10-08T16:22:30.291Z,69
2022-10-08T16:23:46.477Z,69
2022-10-08T16:25:02.651Z,69.2
2022-10-08T16:26:18.679Z,69
2022-10-08T16:27:35.035Z,69.3
2022-10-08T16:28:51.227Z,69.2
2022-10-08T16:30:07.419Z,69
2022-10-08T16:31:23.415Z,69
2022-10-08T16:32:39.774Z,69.2
2022-10-08T16:33:55.973Z,69.1
2022-10-08T16:35:11.986Z,69.4
2022-10-08T16:36:28.166Z,69.3
2022-10-08T16:37:44.531Z,69.3
2022-10-08T16:38:59.741Z,69.3
2022-10-08T16:40:15.927Z,69.3
2022-10-08T16:41:31.926Z,69.4
2022-10-08T16:42:48.295Z,69.3
2022-10-08T16:44:04.479Z,69.3
2022-10-08T16:45:20.681Z,69.3
2022-10-08T16:46:36.854Z,69.4
2022-10-08T16:47:53.052Z,69.4
2022-10-08T16:49:09.238Z,69.6
2022-10-08T16:50:25.235Z,69.4
2022-10-08T16:51:41.612Z,69.5
2022-10-08T16:52:57.807Z,69.6
2022-10-08T16:54:13.798Z,69.8
2022-10-08T16:55:29.180Z,69.7
2022-10-08T16:56:45.371Z,69.7
2022-10-08T16:58:01.571Z,69.8
2022-10-08T16:59:17.739Z,69.6
2022-10-08T17:00:33.926Z,69.8